Aviation Digital Data Service (ADDS)

Output produced by METARs form (1651 UTC 27 August 2016)
found at http://aviationweather.gov/adds/metars/
 
KHPN 271544Z 2716/2812 11005KT P6SM SKC 
     FM271700 14006KT P6SM FEW250 
     FM280000 VRB04KT P6SM FEW250 AMD NOT SKED